Time;durP1;ratioP1;P1;durP2;ratioP2;P2;SDS_P1;SDS_P2;PMS_P1;PMS_P2;Temp;Humidity;BMP_temperature;BMP_pressure;BME280_temperature;BME280_humidity;BME280_pressure;Samples;Min_cycle;Max_cycle;Signal;HPM_P1;HPM_P2
2023/04/19 00:00:52;;;;;;;1999.90;999.90;;;13.10;99.90;;;;;;5014616;28;20169;-71
2023/04/19 00:03:18;;;;;;;1999.90;999.90;;;13.10;99.90;;;;;;5014528;28;20235;-71
2023/04/19 00:05:44;;;;;;;1999.90;999.90;;;13.10;99.90;;;;;;5014693;28;20178;-71
2023/04/19 00:08:09;;;;;;;1999.90;999.90;;;13.00;99.90;;;;;;5014568;28;20985;-71
2023/04/19 00:10:36;;;;;;;1999.90;999.90;;;13.00;99.90;;;;;;5014483;28;20175;-70
2023/04/19 00:13:02;;;;;;;1999.90;999.90;;;13.00;99.90;;;;;;5014240;28;20268;-71
2023/04/19 00:15:27;;;;;;;1999.90;999.90;;;13.00;99.90;;;;;;5014427;28;20916;-71
2023/04/19 00:17:53;;;;;;;1999.90;999.90;;;12.90;99.90;;;;;;5014419;28;20660;-71
2023/04/19 00:20:20;;;;;;;1999.90;999.90;;;12.90;99.90;;;;;;5014319;28;20209;-71
2023/04/19 00:22:45;;;;;;;1999.90;999.90;;;12.90;99.90;;;;;;5013986;28;20665;-70
2023/04/19 00:25:11;;;;;;;1999.90;999.90;;;12.90;99.90;;;;;;5014376;28;20434;-71
2023/04/19 00:27:36;;;;;;;1999.90;999.90;;;12.90;99.90;;;;;;5014383;28;20199;-70
2023/04/19 00:30:02;;;;;;;1999.90;999.90;;;12.80;99.90;;;;;;5014285;28;20166;-70
2023/04/19 00:32:28;;;;;;;1999.90;999.90;;;12.90;99.90;;;;;;5014052;28;20218;-70
2023/04/19 00:34:53;;;;;;;1999.90;999.90;;;12.90;99.90;;;;;;5014069;28;20683;-71
2023/04/19 00:37:19;;;;;;;1999.90;999.90;;;12.80;99.90;;;;;;5014113;28;20203;-70
2023/04/19 00:39:45;;;;;;;1999.90;999.90;;;12.80;99.90;;;;;;5012979;28;20252;-71
2023/04/19 00:42:10;;;;;;;1999.90;999.90;;;12.70;99.90;;;;;;4992625;28;20448;-71
2023/04/19 00:44:36;;;;;;;1999.90;999.90;;;12.70;99.90;;;;;;4994328;28;20201;-70
2023/04/19 00:47:01;;;;;;;1999.90;999.90;;;12.60;99.90;;;;;;4994209;28;20166;-71
2023/04/19 00:49:28;;;;;;;1999.90;999.90;;;12.60;99.90;;;;;;4994386;28;20645;-71
2023/04/19 00:51:54;;;;;;;1999.90;999.90;;;12.50;99.90;;;;;;4994094;28;20166;-70
2023/04/19 00:54:20;;;;;;;1999.90;999.90;;;12.60;99.90;;;;;;4994059;28;20433;-70
2023/04/19 00:56:45;;;;;;;1999.90;999.90;;;12.50;99.90;;;;;;4994097;28;20427;-71
2023/04/19 00:59:13;;;;;;;1999.90;999.90;;;12.60;99.90;;;;;;4993965;28;20181;-70
2023/04/19 01:01:40;;;;;;;1999.90;999.90;;;12.60;99.90;;;;;;4993609;28;20640;-71
2023/04/19 01:04:06;;;;;;;1999.90;999.90;;;12.50;99.90;;;;;;4993977;28;20464;-70
2023/04/19 01:06:33;;;;;;;1999.90;999.90;;;12.40;99.90;;;;;;4994087;28;20772;-71
2023/04/19 01:08:59;;;;;;;1999.90;999.90;;;12.40;99.90;;;;;;4993813;28;20767;-71
2023/04/19 01:11:27;;;;;;;1999.90;999.90;;;12.30;99.90;;;;;;4993513;28;20402;-70
2023/04/19 01:13:54;;;;;;;1999.90;999.90;;;12.40;99.90;;;;;;4993838;28;20228;-70
2023/04/19 01:16:20;;;;;;;1999.90;999.90;;;12.40;99.90;;;;;;4993731;28;20838;-70
2023/04/19 01:18:45;;;;;;;1999.90;999.90;;;12.30;99.90;;;;;;4993839;28;20480;-70
2023/04/19 01:21:11;;;;;;;1999.90;999.90;;;12.30;99.90;;;;;;4993580;28;20179;-70
2023/04/19 01:23:38;;;;;;;1999.90;999.90;;;12.30;99.90;;;;;;4993420;28;20285;-70
2023/04/19 01:26:04;;;;;;;1999.90;999.90;;;12.30;99.90;;;;;;4993497;28;20235;-70
2023/04/19 01:28:30;;;;;;;1999.90;999.90;;;12.30;99.90;;;;;;4993498;28;20402;-71
2023/04/19 01:30:56;;;;;;;1999.90;999.90;;;12.20;99.90;;;;;;4993190;28;20919;-70
2023/04/19 01:33:22;;;;;;;1999.90;999.90;;;12.20;99.90;;;;;;4993281;28;20443;-70
2023/04/19 01:35:48;;;;;;;1999.90;999.90;;;12.20;99.90;;;;;;4993390;28;20177;-70
2023/04/19 01:38:17;;;;;;;1999.90;999.90;;;12.20;99.90;;;;;;4993244;28;20414;-70
2023/04/19 01:40:43;;;;;;;1999.90;999.90;;;12.20;99.90;;;;;;4993243;28;20772;-70
2023/04/19 01:43:12;;;;;;;1999.90;999.90;;;12.20;99.90;;;;;;4992910;28;20461;-71
2023/04/19 01:45:37;;;;;;;1999.90;999.90;;;12.10;99.90;;;;;;4993222;28;20169;-70
2023/04/19 01:48:03;;;;;;;1999.90;999.90;;;12.10;99.90;;;;;;4993240;28;20402;-71
2023/04/19 01:50:30;;;;;;;1999.90;999.90;;;12.10;99.90;;;;;;4993145;28;20642;-71
2023/04/19 01:52:56;;;;;;;1999.90;999.90;;;12.10;99.90;;;;;;4992675;28;20195;-71
2023/04/19 01:55:22;;;;;;;1999.90;999.90;;;12.10;99.90;;;;;;4992982;28;20492;-71
2023/04/19 01:57:47;;;;;;;1999.90;999.90;;;12.00;99.90;;;;;;4992832;28;20489;-71
2023/04/19 02:00:14;;;;;;;1999.90;999.90;;;12.00;99.90;;;;;;4992740;28;20166;-71
2023/04/19 02:02:40;;;;;;;1999.90;999.90;;;11.90;99.90;;;;;;4992573;28;20232;-71
2023/04/19 02:05:06;;;;;;;1999.90;999.90;;;11.90;99.90;;;;;;4992873;28;20489;-71
2023/04/19 02:07:31;;;;;;;1999.90;999.90;;;11.70;99.90;;;;;;4992743;28;20434;-71
2023/04/19 02:09:58;;;;;;;1999.90;999.90;;;11.70;99.90;;;;;;4993078;28;20894;-70
2023/04/19 02:12:27;;;;;;;1999.90;999.90;;;11.60;99.90;;;;;;4992520;28;20219;-71
2023/04/19 02:14:58;;;;;;;1999.90;999.90;;;11.60;99.90;;;;;;4992769;28;20409;-70
2023/04/19 02:17:24;;;;;;;1999.90;999.90;;;11.50;99.90;;;;;;4992767;28;20465;-71
2023/04/19 02:19:50;;;;;;;1999.90;999.90;;;11.40;99.90;;;;;;4992676;28;20416;-70
2023/04/19 02:22:16;;;;;;;1999.90;999.90;;;11.40;99.90;;;;;;4992328;28;20418;-71
2023/04/19 02:24:42;;;;;;;1999.90;999.90;;;11.30;99.90;;;;;;4992774;28;20827;-71
2023/04/19 02:27:07;;;;;;;1999.90;999.90;;;11.30;99.90;;;;;;4992691;28;20408;-70
2023/04/19 02:29:33;;;;;;;1999.90;999.90;;;11.30;99.90;;;;;;4992626;28;20182;-70
2023/04/19 02:31:58;;;;;;;1999.90;999.90;;;11.20;99.90;;;;;;4992363;28;20538;-71
2023/04/19 02:34:26;;;;;;;1999.90;999.90;;;11.20;99.90;;;;;;4992596;28;20255;-70
2023/04/19 02:36:51;;;;;;;1999.90;999.90;;;11.20;99.90;;;;;;4992794;28;20179;-72
2023/04/19 02:39:17;;;;;;;1999.90;999.90;;;11.10;99.90;;;;;;4992593;28;20409;-72
2023/04/19 02:41:43;;;;;;;1999.90;999.90;;;11.10;99.90;;;;;;4992280;28;20632;-70
2023/04/19 02:44:08;;;;;;;1999.90;999.90;;;11.10;99.90;;;;;;4992500;28;20217;-70
2023/04/19 02:46:34;;;;;;;1999.90;999.90;;;11.00;99.90;;;;;;4993008;28;20166;-70
2023/04/19 02:49:00;;;;;;;1999.90;999.90;;;11.20;99.90;;;;;;4992788;28;20170;-70
2023/04/19 02:51:26;;;;;;;1999.90;999.90;;;11.00;99.90;;;;;;4992673;28;20180;-70
2023/04/19 02:53:51;;;;;;;1999.90;999.90;;;11.00;99.90;;;;;;4992799;28;20428;-71
2023/04/19 02:56:17;;;;;;;1999.90;999.90;;;11.10;99.90;;;;;;4992797;28;20253;-71
2023/04/19 02:58:43;;;;;;;1999.90;999.90;;;11.10;99.90;;;;;;4992574;28;20410;-70
2023/04/19 03:01:09;;;;;;;1999.90;999.90;;;11.10;99.90;;;;;;4992050;28;20576;-70
2023/04/19 03:03:34;;;;;;;1999.90;999.90;;;11.10;99.90;;;;;;4992154;28;20213;-73
2023/04/19 03:06:00;;;;;;;1999.90;999.90;;;11.10;99.90;;;;;;4992288;28;20924;-73
2023/04/19 03:08:26;;;;;;;1999.90;999.90;;;11.20;99.90;;;;;;4992275;28;20180;-73
2023/04/19 03:10:51;;;;;;;1999.90;999.90;;;11.30;99.90;;;;;;4993365;28;20397;-73
2023/04/19 03:13:17;;;;;;;1999.90;999.90;;;11.40;99.90;;;;;;4996048;28;20212;-70
2023/04/19 03:15:43;;;;;;;1999.90;999.90;;;11.40;99.90;;;;;;4996328;28;20170;-70
2023/04/19 03:18:08;;;;;;;1999.90;999.90;;;11.40;99.90;;;;;;4996018;28;20174;-71
2023/04/19 03:20:34;;;;;;;1999.90;999.90;;;11.50;99.90;;;;;;4995848;28;20193;-71
2023/04/19 03:23:00;;;;;;;1999.90;999.90;;;11.50;99.90;;;;;;4995452;28;20201;-71
2023/04/19 03:25:25;;;;;;;1999.90;999.90;;;11.50;99.90;;;;;;4995803;28;20201;-70
2023/04/19 03:27:51;;;;;;;1999.90;999.90;;;11.50;99.90;;;;;;4995755;28;20170;-70
2023/04/19 03:30:17;;;;;;;1999.90;999.90;;;11.50;99.90;;;;;;4995757;28;20304;-70
2023/04/19 03:32:43;;;;;;;1999.90;999.90;;;11.50;99.90;;;;;;4995237;28;20201;-70
2023/04/19 03:35:09;;;;;;;1999.90;999.90;;;11.50;99.90;;;;;;4995592;28;20417;-70
2023/04/19 03:37:34;;;;;;;1999.90;999.90;;;11.50;99.90;;;;;;4995513;28;20750;-70
2023/04/19 03:40:00;;;;;;;1999.90;999.90;;;11.50;99.90;;;;;;4995534;28;20413;-70
2023/04/19 03:42:26;;;;;;;1999.90;999.90;;;11.50;99.90;;;;;;4995229;28;20206;-70
2023/04/19 03:44:51;;;;;;;1999.90;999.90;;;11.50;99.90;;;;;;4995411;28;20464;-70
2023/04/19 03:47:17;;;;;;;1999.90;999.90;;;11.50;99.90;;;;;;4995384;28;20562;-70
2023/04/19 03:49:42;;;;;;;1999.90;999.90;;;11.50;99.90;;;;;;4995304;28;20190;-71
2023/04/19 03:52:08;;;;;;;1999.90;999.90;;;11.60;99.90;;;;;;4994985;28;20213;-70
2023/04/19 03:54:34;;;;;;;1999.90;999.90;;;11.50;99.90;;;;;;4995603;28;20229;-70
2023/04/19 03:56:59;;;;;;;1999.90;999.90;;;11.50;99.90;;;;;;4995595;28;20166;-70
2023/04/19 03:59:25;;;;;;;1999.90;999.90;;;11.40;99.90;;;;;;4995530;28;20310;-70
2023/04/19 04:01:50;;;;;;;1999.90;999.90;;;11.50;99.90;;;;;;4995124;28;20229;-70
2023/04/19 04:04:16;;;;;;;1999.90;999.90;;;11.40;99.90;;;;;;4995269;28;20237;-70
2023/04/19 04:06:42;;;;;;;1999.90;999.90;;;11.30;99.90;;;;;;4995489;28;20233;-70
2023/04/19 04:09:07;;;;;;;1999.90;999.90;;;11.30;99.90;;;;;;4995472;28;20167;-70
2023/04/19 04:11:33;;;;;;;1999.90;999.90;;;11.30;99.90;;;;;;4994977;28;20181;-71
2023/04/19 04:13:58;;;;;;;1999.90;999.90;;;11.20;99.90;;;;;;4994885;28;20293;-71
2023/04/19 04:16:24;;;;;;;1999.90;999.90;;;11.10;99.90;;;;;;4994900;28;20182;-71
2023/04/19 04:18:50;;;;;;;1999.90;999.90;;;11.10;99.90;;;;;;4994786;28;20174;-70
2023/04/19 04:21:15;;;;;;;1999.90;999.90;;;11.00;99.90;;;;;;4994155;28;20175;-71
2023/04/19 04:23:41;;;;;;;1999.90;999.90;;;11.00;99.90;;;;;;4994643;28;20217;-71
2023/04/19 04:26:08;;;;;;;1999.90;999.90;;;11.00;99.90;;;;;;4994824;28;20176;-70
2023/04/19 04:28:35;;;;;;;1999.90;999.90;;;11.00;99.90;;;;;;4994672;28;20184;-71
2023/04/19 04:31:00;;;;;;;1999.90;999.90;;;11.00;99.90;;;;;;4994329;28;20488;-71
2023/04/19 04:33:27;;;;;;;1999.90;999.90;;;11.00;99.90;;;;;;4994484;28;21014;-70
2023/04/19 04:35:54;;;;;;;1999.90;999.90;;;11.00;99.90;;;;;;4994511;28;20549;-70
2023/04/19 04:38:20;;;;;;;1999.90;999.90;;;10.90;99.90;;;;;;4994539;28;20882;-71
2023/04/19 04:40:53;;;;;;;1999.90;999.90;;;11.00;99.90;;;;;;4994416;28;20427;-71
2023/04/19 04:43:20;;;;;;;1999.90;999.90;;;11.00;99.90;;;;;;4994614;28;20470;-73
2023/04/19 04:45:46;;;;;;;1999.90;999.90;;;11.00;99.90;;;;;;4994398;28;20416;-73
2023/04/19 04:48:12;;;;;;;1999.90;999.90;;;11.10;99.90;;;;;;4994379;28;20405;-73
2023/04/19 04:50:37;;;;;;;1999.90;999.90;;;11.10;99.90;;;;;;4994482;28;20166;-73
2023/04/19 04:53:03;;;;;;;1999.90;999.90;;;11.20;99.90;;;;;;4994285;28;20193;-72
2023/04/19 04:55:29;;;;;;;1999.90;999.90;;;11.30;99.90;;;;;;4994533;28;20201;-72
2023/04/19 04:57:55;;;;;;;1999.90;999.90;;;11.30;99.90;;;;;;4994649;28;20569;-72
2023/04/19 05:00:21;;;;;;;1999.90;999.90;;;11.30;99.90;;;;;;4994297;28;20174;-72
2023/04/19 05:02:46;;;;;;;1999.90;999.90;;;11.40;99.90;;;;;;4993929;28;20416;-72
2023/04/19 05:05:12;;;;;;;1999.90;999.90;;;11.40;99.90;;;;;;4994364;28;20449;-72
2023/04/19 05:07:38;;;;;;;1999.90;999.90;;;11.50;99.90;;;;;;4994237;28;20171;-72
2023/04/19 05:10:04;;;;;;;1999.90;999.90;;;11.50;99.90;;;;;;4994032;28;20181;-72
2023/04/19 05:12:30;;;;;;;1999.90;999.90;;;11.60;99.90;;;;;;4993771;28;20193;-72
2023/04/19 05:14:55;;;;;;;1999.90;999.90;;;11.60;99.90;;;;;;4993953;28;20421;-73
2023/04/19 05:17:21;;;;;;;1999.90;999.90;;;11.60;99.90;;;;;;4994094;28;20181;-73
2023/04/19 05:19:46;;;;;;;1999.90;999.90;;;11.60;99.90;;;;;;4994274;28;20174;-70
2023/04/19 05:22:12;;;;;;;1999.90;999.90;;;11.20;99.90;;;;;;4993665;28;20177;-70
2023/04/19 05:24:38;;;;;;;1999.90;999.90;;;11.70;99.90;;;;;;4993933;28;20210;-70
2023/04/19 05:27:04;;;;;;;1999.90;999.90;;;11.70;99.90;;;;;;4993830;28;20165;-70
2023/04/19 05:29:30;;;;;;;1999.90;999.90;;;11.80;99.90;;;;;;4993969;28;20432;-70
2023/04/19 05:31:57;;;;;;;1999.90;999.90;;;11.80;99.90;;;;;;4993315;28;20215;-71
2023/04/19 05:34:23;;;;;;;1999.90;999.90;;;11.80;99.90;;;;;;4992601;28;20432;-71
2023/04/19 05:36:49;;;;;;;1999.90;999.90;;;11.80;99.90;;;;;;4993362;28;20411;-70
2023/04/19 05:39:14;;;;;;;1999.90;999.90;;;11.90;99.90;;;;;;4993332;28;20420;-71
2023/04/19 05:41:40;;;;;;;1999.90;999.90;;;11.90;99.90;;;;;;4992991;28;20190;-71
2023/04/19 05:44:06;;;;;;;1999.90;999.90;;;11.90;99.90;;;;;;4992948;28;20377;-71
2023/04/19 05:46:31;;;;;;;1999.90;999.90;;;11.90;99.90;;;;;;4993196;28;20171;-70
2023/04/19 05:48:57;;;;;;;1999.90;999.90;;;12.00;99.90;;;;;;4993279;28;20540;-71
2023/04/19 05:51:22;;;;;;;1999.90;999.90;;;11.90;99.90;;;;;;4992932;28;20244;-71
2023/04/19 05:53:48;;;;;;;1999.90;999.90;;;12.00;99.90;;;;;;4993069;28;20716;-71
2023/04/19 05:56:13;;;;;;;1999.90;999.90;;;11.90;99.90;;;;;;4993069;28;20180;-71
2023/04/19 05:58:39;;;;;;;1999.90;999.90;;;12.00;99.90;;;;;;4992945;28;20178;-71
2023/04/19 06:01:05;;;;;;;1999.90;999.90;;;12.00;99.90;;;;;;4992620;28;20354;-71
2023/04/19 06:03:32;;;;;;;1999.90;999.90;;;12.00;99.90;;;;;;4992857;28;20211;-70
2023/04/19 06:05:58;;;;;;;1999.90;999.90;;;12.00;99.90;;;;;;4992918;28;20819;-71
2023/04/19 06:08:23;;;;;;;1999.90;999.90;;;12.00;99.90;;;;;;4992835;28;20414;-71
2023/04/19 06:10:49;;;;;;;1999.90;999.90;;;12.00;99.90;;;;;;4992966;28;20173;-71
2023/04/19 06:13:15;;;;;;;1999.90;999.90;;;12.00;99.90;;;;;;4992694;28;20197;-72
2023/04/19 06:15:41;;;;;;;1999.90;999.90;;;11.90;99.90;;;;;;4993118;28;20608;-72
2023/04/19 06:18:09;;;;;;;1999.90;999.90;;;12.00;99.90;;;;;;4992943;28;20398;-72
2023/04/19 06:20:38;;;;;;;1999.90;999.90;;;12.00;99.90;;;;;;4993072;28;20174;-73
2023/04/19 06:23:04;;;;;;;1999.90;999.90;;;12.00;99.90;;;;;;4992225;28;20439;-73
2023/04/19 06:25:30;;;;;;;1999.90;999.90;;;12.00;99.90;;;;;;4992742;28;20421;-73
2023/04/19 06:27:55;;;;;;;1999.90;999.90;;;12.00;99.90;;;;;;4992638;28;20804;-72
2023/04/19 06:30:21;;;;;;;1999.90;999.90;;;12.00;99.90;;;;;;4992714;28;20640;-73
2023/04/19 06:32:46;;;;;;;1999.90;999.90;;;12.00;99.90;;;;;;4992227;28;20322;-73
2023/04/19 06:35:13;;;;;;;1999.90;999.90;;;12.00;99.90;;;;;;4992568;28;20293;-73
2023/04/19 06:37:38;;;;;;;1999.90;999.90;;;12.10;99.90;;;;;;4992605;28;20250;-73
2023/04/19 06:40:07;;;;;;;1999.90;999.90;;;12.10;99.90;;;;;;4992429;28;20496;-73
2023/04/19 06:42:33;;;;;;;1999.90;999.90;;;12.10;99.90;;;;;;4992021;28;20218;-73
2023/04/19 06:44:58;;;;;;;1999.90;999.90;;;12.20;99.90;;;;;;4993807;28;20453;-71
2023/04/19 06:47:24;;;;;;;1999.90;999.90;;;12.20;99.90;;;;;;4996386;28;20772;-71
2023/04/19 06:49:49;;;;;;;1999.90;999.90;;;12.10;99.90;;;;;;4996439;28;20198;-71
2023/04/19 06:52:15;;;;;;;1999.90;999.90;;;12.10;99.90;;;;;;4996084;28;20170;-71
2023/04/19 06:54:41;;;;;;;1999.90;999.90;;;12.20;99.90;;;;;;4996341;28;20175;-71
2023/04/19 06:57:06;;;;;;;1999.90;999.90;;;12.30;99.90;;;;;;4996527;28;20190;-71
2023/04/19 06:59:32;;;;;;;1999.90;999.90;;;12.20;99.90;;;;;;4996298;28;20551;-71
2023/04/19 07:01:58;;;;;;;1999.90;999.90;;;12.30;99.90;;;;;;4995936;28;20173;-70
2023/04/19 07:04:25;;;;;;;1999.90;999.90;;;12.30;99.90;;;;;;4996212;28;20459;-70
2023/04/19 07:06:51;;;;;;;1999.90;999.90;;;12.40;99.90;;;;;;4996234;28;20180;-70
2023/04/19 07:09:17;;;;;;;1999.90;999.90;;;12.50;99.90;;;;;;4996102;28;20777;-71
2023/04/19 07:11:42;;;;;;;1999.90;999.90;;;12.50;99.90;;;;;;4995799;28;20191;-71
2023/04/19 07:14:08;;;;;;;1999.90;999.90;;;12.60;99.90;;;;;;4996083;28;20216;-70
2023/04/19 07:16:33;;;;;;;1999.90;999.90;;;12.70;99.90;;;;;;4996232;28;20537;-70
2023/04/19 07:18:59;;;;;;;1999.90;999.90;;;12.80;99.90;;;;;;4996192;28;20170;-70
2023/04/19 07:21:27;;;;;;;1999.90;999.90;;;13.00;99.90;;;;;;4996364;28;20250;-70
2023/04/19 07:23:53;;;;;;;1999.90;999.90;;;13.10;99.90;;;;;;4996167;28;20712;-70
2023/04/19 07:26:19;;;;;;;1999.90;999.90;;;13.20;99.90;;;;;;4996037;28;20416;-70
2023/04/19 07:28:44;;;;;;;1999.90;999.90;;;13.30;99.90;;;;;;4992988;28;20191;-70
2023/04/19 07:31:17;;;;;;;1999.90;999.90;;;13.30;99.90;;;;;;4993817;28;20413;-70
2023/04/19 07:33:43;;;;;;;1999.90;999.90;;;13.30;99.90;;;;;;4993255;28;20233;-70
2023/04/19 07:36:10;;;;;;;1999.90;999.90;;;13.30;99.90;;;;;;4991901;28;20431;-71
2023/04/19 07:38:35;;;;;;;1999.90;999.90;;;13.40;99.90;;;;;;4991447;28;20419;-71
2023/04/19 07:41:02;;;;;;;1999.90;999.90;;;13.50;99.90;;;;;;4991178;28;20455;-71
2023/04/19 07:43:29;;;;;;;1999.90;999.90;;;13.50;99.90;;;;;;4991837;28;20292;-70
2023/04/19 07:45:55;;;;;;;1999.90;999.90;;;13.60;99.90;;;;;;4991405;28;20422;-70
2023/04/19 07:48:20;;;;;;;1999.90;999.90;;;13.70;99.90;;;;;;4991692;28;20434;-70
2023/04/19 07:50:46;;;;;;;1999.90;999.90;;;13.80;99.90;;;;;;4991208;28;20176;-70
2023/04/19 07:53:11;;;;;;;1999.90;999.90;;;14.00;99.90;;;;;;4991340;28;20204;-70
2023/04/19 07:55:37;;;;;;;1999.90;999.90;;;14.10;99.90;;;;;;4991489;28;20287;-70
2023/04/19 07:58:02;;;;;;;1999.90;999.90;;;14.10;99.90;;;;;;4990489;28;20183;-70
2023/04/19 08:00:33;;;;;;;1999.90;999.90;;;14.10;99.90;;;;;;4993390;28;20187;-70
2023/04/19 08:02:59;;;;;;;1999.90;999.90;;;14.10;99.90;;;;;;4994863;28;20186;-70
2023/04/19 08:05:26;;;;;;;1999.90;999.90;;;14.10;99.90;;;;;;4995304;28;20468;-70
2023/04/19 08:07:52;;;;;;;1999.90;999.90;;;14.20;99.90;;;;;;4995311;28;20410;-70
2023/04/19 08:10:18;;;;;;;1999.90;999.90;;;14.30;99.90;;;;;;4995108;28;20410;-71
2023/04/19 08:12:44;;;;;;;1999.90;999.90;;;14.40;99.90;;;;;;4994719;28;20804;-71
2023/04/19 08:15:10;;;;;;;1999.90;999.90;;;14.50;99.90;;;;;;4994822;28;20410;-71
2023/04/19 08:17:36;;;;;;;1999.90;999.90;;;14.70;99.90;;;;;;4994796;28;20172;-71
2023/04/19 08:20:02;;;;;;;1999.90;999.90;;;14.70;99.90;;;;;;4994729;28;20488;-71
2023/04/19 08:22:28;;;;;;;1999.90;999.90;;;14.60;99.90;;;;;;4994356;28;20316;-71
2023/04/19 08:24:53;;;;;;;1999.90;999.90;;;14.60;99.90;;;;;;4994674;28;20550;-71
2023/04/19 08:27:20;;;;;;;1999.90;999.90;;;14.60;99.90;;;;;;4994767;28;20256;-70
2023/04/19 08:29:46;;;;;;;1999.90;999.90;;;14.60;99.90;;;;;;4994994;28;20179;-71
2023/04/19 08:32:12;;;;;;;1999.90;999.90;;;14.60;99.90;;;;;;4994294;28;20409;-71
2023/04/19 08:34:39;;;;;;;1999.90;999.90;;;14.60;99.90;;;;;;4994607;28;20507;-71
2023/04/19 08:37:06;;;;;;;1999.90;999.90;;;14.60;99.90;;;;;;4994985;28;20448;-71
2023/04/19 08:39:32;;;;;;;1999.90;999.90;;;14.60;99.90;;;;;;4994178;28;20408;-71
2023/04/19 08:42:06;;;;;;;1999.90;999.90;;;14.70;99.90;;;;;;4979661;28;20469;-71
2023/04/19 08:44:33;;;;;;;1999.90;999.90;;;14.80;99.90;;;;;;4975157;28;20889;-71
2023/04/19 08:46:59;;;;;;;1999.90;999.90;;;14.90;99.90;;;;;;4974944;28;20470;-71
2023/04/19 08:49:27;;;;;;;1999.90;999.90;;;15.10;99.90;;;;;;4974795;28;20850;-70
2023/04/19 08:51:54;;;;;;;1999.90;999.90;;;15.30;99.90;;;;;;4974508;28;20460;-70
2023/04/19 08:54:20;;;;;;;1999.90;999.90;;;15.50;99.90;;;;;;4974530;28;20446;-71
2023/04/19 08:56:46;;;;;;;1999.90;999.90;;;15.50;99.90;;;;;;4974663;28;20420;-70
2023/04/19 08:59:12;;;;;;;1999.90;999.90;;;15.60;99.90;;;;;;4974526;28;20412;-71
2023/04/19 09:01:38;;;;;;;1999.90;999.90;;;15.60;99.90;;;;;;4974399;28;20184;-70
2023/04/19 09:04:06;;;;;;;1999.90;999.90;;;15.70;99.90;;;;;;4974330;28;20486;-70
2023/04/19 09:06:39;;;;;;;1999.90;999.90;;;15.60;99.90;;;;;;4974469;28;20939;-70
2023/04/19 09:09:28;;;;;;;1999.90;999.90;;;15.60;99.90;;;;;;4974500;28;20504;-71
2023/04/19 09:11:54;;;;;;;1999.90;999.90;;;15.60;99.90;;;;;;4969154;28;20977;-70
2023/04/19 09:14:21;;;;;;;1999.90;999.90;;;15.60;99.90;;;;;;4974589;28;20454;-71
2023/04/19 09:16:47;;;;;;;1999.90;999.90;;;15.60;99.90;;;;;;4975642;28;20268;-69
2023/04/19 09:19:12;;;;;;;1999.90;999.90;;;15.60;99.90;;;;;;5004366;28;21021;-69
2023/04/19 09:21:39;;;;;;;1999.90;999.90;;;15.70;99.90;;;;;;5002602;28;20424;-69
2023/04/19 09:24:05;;;;;;;1999.90;999.90;;;15.80;99.90;;;;;;5006441;28;20219;-69
2023/04/19 09:26:31;;;;;;;1999.90;999.90;;;15.90;99.70;;;;;;5009613;28;20421;-69
2023/04/19 09:29:00;;;;;;;1999.90;999.90;;;15.90;95.90;;;;;;5010861;28;20420;-68
2023/04/19 09:31:30;;;;;;;1999.90;999.90;;;15.90;95.80;;;;;;5010131;28;20413;-69
2023/04/19 09:33:56;;;;;;;1999.90;999.90;;;15.90;93.30;;;;;;5009530;28;20474;-69
2023/04/19 09:36:30;;;;;;;1999.90;999.90;;;15.90;94.80;;;;;;5009105;28;20934;-68
2023/04/19 09:38:57;;;;;;;1999.90;999.90;;;16.00;94.60;;;;;;5011320;28;20567;-70
2023/04/19 09:41:23;;;;;;;1999.90;999.90;;;16.10;96.10;;;;;;5009839;28;20890;-72
2023/04/19 09:43:49;;;;;;;1999.90;999.90;;;16.20;91.90;;;;;;5008151;28;20467;-73
2023/04/19 09:46:31;;;;;;;1999.90;999.90;;;16.10;88.20;;;;;;5008800;28;20417;-72
2023/04/19 09:49:26;;;;;;;1999.90;999.90;;;16.00;88.00;;;;;;5008073;28;20421;-73
2023/04/19 09:51:56;;;;;;;1999.90;999.90;;;16.10;89.90;;;;;;4999700;28;20873;-72
2023/04/19 09:54:24;;;;;;;1999.90;999.90;;;16.20;89.50;;;;;;5008109;28;20512;-73
2023/04/19 09:56:51;;;;;;;1999.90;999.90;;;16.30;78.70;;;;;;5008645;28;20462;-73
2023/04/19 09:59:18;;;;;;;1999.90;999.90;;;16.30;78.20;;;;;;5009091;28;20435;-72
2023/04/19 10:01:51;;;;;;;1999.90;999.90;;;16.20;80.60;;;;;;5007991;28;20862;-69
2023/04/19 10:04:21;;;;;;;1999.90;999.90;;;16.30;80.70;;;;;;5007590;28;20470;-70
2023/04/19 10:06:51;;;;;;;1999.90;999.90;;;16.40;77.40;;;;;;5008308;28;20414;-69
2023/04/19 10:09:17;;;;;;;1999.90;999.90;;;16.40;69.00;;;;;;5008811;28;20416;-70
2023/04/19 10:11:48;;;;;;;1999.90;999.90;;;16.50;66.70;;;;;;5007820;28;20419;-70
2023/04/19 10:14:14;;;;;;;1999.90;999.90;;;16.60;68.50;;;;;;5007788;28;20921;-70
2023/04/19 10:16:40;;;;;;;1999.90;999.90;;;16.70;65.40;;;;;;5008748;28;20560;-70
2023/04/19 10:19:09;;;;;;;1999.90;999.90;;;16.70;60.90;;;;;;5007615;28;20518;-69
2023/04/19 10:21:36;;;;;;;1999.90;999.90;;;16.60;61.30;;;;;;4998484;28;20183;-70
2023/04/19 10:24:03;;;;;;;1999.90;999.90;;;16.60;64.00;;;;;;4988631;28;20466;-70
2023/04/19 10:26:29;;;;;;;1999.90;999.90;;;16.70;60.50;;;;;;4988636;28;20489;-69
2023/04/19 10:28:58;;;;;;;1999.90;999.90;;;16.80;57.20;;;;;;4988041;28;20493;-70
2023/04/19 10:31:25;;;;;;;1999.90;999.90;;;16.90;57.10;;;;;;4987912;28;20824;-69
2023/04/19 10:33:51;;;;;;;1999.90;999.90;;;17.10;56.60;;;;;;4988961;28;20435;-70
2023/04/19 10:36:18;;;;;;;1999.90;999.90;;;17.10;56.50;;;;;;4988103;28;21087;-70
2023/04/19 10:38:48;;;;;;;1999.90;999.90;;;17.20;49.80;;;;;;4988411;28;20420;-70
2023/04/19 10:41:18;;;;;;;1999.90;999.90;;;17.40;49.80;;;;;;4988637;28;20421;-70
2023/04/19 10:43:45;;;;;;;1999.90;999.90;;;17.40;44.10;;;;;;4988812;28;20474;-69
2023/04/19 10:46:27;;;;;;;1999.90;999.90;;;17.40;46.00;;;;;;4987930;28;20443;-69
2023/04/19 10:48:57;;;;;;;1999.90;999.90;;;17.50;42.40;;;;;;4988119;28;20787;-70
2023/04/19 10:51:26;;;;;;;1999.90;999.90;;;17.30;40.30;;;;;;4987720;28;20756;-69
2023/04/19 10:53:59;;;;;;;1999.90;999.90;;;17.30;39.80;;;;;;4988344;28;20437;-69
2023/04/19 10:56:33;;;;;;;1999.90;999.90;;;17.40;43.30;;;;;;4988579;28;20451;-70
2023/04/19 10:58:59;;;;;;;1999.90;999.90;;;17.80;43.30;;;;;;4988752;28;20428;-70
2023/04/19 11:01:43;;;;;;;1999.90;999.90;;;18.00;40.40;;;;;;4987625;28;20424;-70
2023/04/19 11:04:38;;;;;;;1999.90;999.90;;;18.20;36.90;;;;;;4988406;28;20467;-70
2023/04/19 11:07:06;;;;;;;1999.90;999.90;;;18.40;37.80;;;;;;4974401;28;20434;-70
2023/04/19 11:09:41;;;;;;;1999.90;999.90;;;18.60;34.90;;;;;;4988060;28;20452;-70
2023/04/19 11:12:14;;;;;;;1999.90;999.90;;;18.50;32.00;;;;;;4988400;28;20423;-70
2023/04/19 11:14:45;;;;;;;1999.90;999.90;;;18.30;32.70;;;;;;4988771;28;20430;-70
2023/04/19 11:17:15;;;;;;;1999.90;999.90;;;18.40;31.90;;;;;;4988152;28;20443;-70
2023/04/19 11:20:01;;;;;;;1999.90;999.90;;;18.40;33.10;;;;;;4987927;28;20426;-70
2023/04/19 11:22:44;;;;;;;1999.90;999.90;;;18.40;31.30;;;;;;4987965;28;20694;-70
2023/04/19 11:25:18;;;;;;;1999.90;999.90;;;18.40;30.00;;;;;;4988696;28;20448;-70
2023/04/19 11:27:46;;;;;;;1999.90;999.90;;;18.50;32.40;;;;;;4988665;28;20418;-70
2023/04/19 11:30:41;;;;;;;1999.90;999.90;;;18.40;27.90;;;;;;4987996;28;20401;-70
2023/04/19 11:33:07;;;;;;;1999.90;999.90;;;18.40;28.10;;;;;;4978250;28;20481;-70
2023/04/19 11:35:33;;;;;;;1999.90;999.90;;;18.40;28.20;;;;;;4992141;28;20855;-70
2023/04/19 11:37:59;;;;;;;1999.90;999.90;;;18.50;27.00;;;;;;4991317;28;20228;-71
2023/04/19 11:40:25;;;;;;;1999.90;999.90;;;18.40;24.20;;;;;;4991605;28;20421;-70
2023/04/19 11:43:02;;;;;;;1999.90;999.90;;;18.20;22.10;;;;;;4991307;28;20518;-70
2023/04/19 11:45:35;;;;;;;1999.90;999.90;;;18.10;22.30;;;;;;4991530;28;20456;-70
2023/04/19 11:48:01;;;;;;;1999.90;999.90;;;18.10;21.20;;;;;;4991303;28;20506;-71
2023/04/19 11:50:34;;;;;;;1999.90;999.90;;;18.30;21.20;;;;;;4991078;28;20426;-70
2023/04/19 11:53:19;;;;;;;1999.90;999.90;;;18.70;22.00;;;;;;4991582;28;21030;-70
2023/04/19 11:55:53;;;;;;;1999.90;999.90;;;19.20;19.70;;;;;;4990830;28;20543;-71
2023/04/19 11:58:27;;;;;;;1999.90;999.90;;;20.00;17.70;;;;;;4990987;28;20496;-71